Buechel, Kentucky
Current Conditions -  °F | °C
As of 10:53 PM on Tuesday 21 Oct 2014 (Local Time) from KLOU Reporting Station
Overcast Overcast  
Wind Chill: 12°   Ceiling: 5500
Heat Index: 12°   Visibility: 10mi
Dew Point:   Wind: 3mph
Humidity: 66%   Direction: 360°N
Pressure: 30.16"   Gusts: NA
Location:  38.1869°N, 85.6523°W
Report Text: KLOU 220253Z 36003KT 10SM OVC055 12/06 A3016 RMK AO2 SLP213 T01220061 53012
Loading
Personal Weather Stations






























Interactive Weather Map
Tropical Storm Tracking
New forecast layout! Learn more

10-Day Weather Forecast

Advertisements
Track Severe Weather on mobile